»·PEaware :: RNGR804 KNGP-KNGP

RNGR804 :: KNGP-KNGP

FLIGHT INFORMATION

Flight Status: Arrived
Operator: Unknown
More flights by this operator :: More flights under this callsign
Pilot: USN Avenger (31125)
Aircraft: BEECH AIRCRAFT T-6A TEXAN
(TEX2)
More flights by this aircraft type
Origin: KNGP Corpus Christi NAS/Truax
United States
Destination: KNGP Corpus Christi NAS/Truax
United States
More flights between these airports :: More routes between these airports
Route: ZOMBIE 1
File this flight plan on PilotEdge
Remarks: RWY13L
Altitude:
(Current/Filed)
5,500ft
Speed:
(Current/Filed)
240kts
Departed: 15-Nov-23 10:30 AM
Arrived: 15-Nov-23 11:20 AM
Distance/Time
Traveled:
0nm/0:50
Distance/Time
To Go:
Arrived

Flight Plot

Page will automatically refresh every two minutes.

Flight plan parsing failed; only flown route is shown


Map Options




Map Legend


Flown Route
Filed Route
Departure Airport
Arrival Airport
Navaid (VOR, NDB)
Fix

Horizontal Profiles

Position Reports

Time Latitude Longitude Heading Altitude Ground
Speed
15-Nov-23 10:16 27.698545 -97.284286 158 22ft 0kts
15-Nov-23 10:17 27.698544 -97.284285 158 22ft 0kts
15-Nov-23 10:18 27.698436 -97.284358 244 22ft 6kts
15-Nov-23 10:19 27.698348 -97.284605 253 22ft 0kts
15-Nov-23 10:20 27.698348 -97.284606 253 22ft 0kts
15-Nov-23 10:21 27.698348 -97.284608 253 22ft 0kts
15-Nov-23 10:22 27.698347 -97.284609 253 22ft 0kts
15-Nov-23 10:23 27.698347 -97.284611 253 22ft 0kts
15-Nov-23 10:24 27.698346 -97.284613 253 22ft 0kts
15-Nov-23 10:25 27.698346 -97.284614 253 22ft 0kts
15-Nov-23 10:26 27.698833 -97.285733 338 22ft 13kts
15-Nov-23 10:27 27.697227 -97.289243 224 22ft 20kts
15-Nov-23 10:28 27.695175 -97.291422 203 22ft 11kts
15-Nov-23 10:29 27.684605 -97.279845 135 240ft 148kts
15-Nov-23 10:30 27.669607 -97.231395 23 490ft 230kts
15-Nov-23 10:31 27.734883 -97.228988 345 489ft 233kts
15-Nov-23 10:32 27.797870 -97.248802 344 600ft 233kts
15-Nov-23 10:33 27.860142 -97.274623 336 577ft 239kts
15-Nov-23 10:34 27.913887 -97.305864 334 2535ft 209kts
15-Nov-23 10:35 27.965887 -97.330888 341 4749ft 214kts
15-Nov-23 10:36 28.027408 -97.354832 340 5433ft 251kts
15-Nov-23 10:37 28.094703 -97.381269 335 5564ft 260kts
15-Nov-23 10:38 28.159155 -97.415367 335 5489ft 250kts
15-Nov-23 10:39 28.222085 -97.449887 331 5516ft 253kts
15-Nov-23 10:40 28.284333 -97.486951 330 5526ft 254kts
15-Nov-23 10:41 28.343091 -97.530847 323 5582ft 254kts
15-Nov-23 10:42 28.391294 -97.574264 329 3903ft 181kts
15-Nov-23 10:43 28.446641 -97.601518 345 4269ft 250kts
15-Nov-23 10:44 28.513270 -97.627260 342 4097ft 254kts
15-Nov-23 10:45 28.576819 -97.653733 349 2697ft 215kts
15-Nov-23 10:46 28.631048 -97.675772 357 1423ft 192kts
15-Nov-23 10:47 28.622755 -97.620065 110 1297ft 195kts
15-Nov-23 10:48 28.629872 -97.604308 290 1109ft 111kts
15-Nov-23 10:49 28.622887 -97.624514 109 406ft 118kts
15-Nov-23 10:50 28.611740 -97.588467 109 499ft 131kts
15-Nov-23 10:51 28.578051 -97.553241 186 1528ft 201kts
15-Nov-23 10:52 28.517480 -97.561097 186 2581ft 245kts
15-Nov-23 10:53 28.452540 -97.535916 139 2619ft 248kts
15-Nov-23 10:54 28.404229 -97.483347 132 2511ft 249kts
15-Nov-23 10:55 28.355685 -97.428148 137 2548ft 240kts
15-Nov-23 10:56 28.304622 -97.377975 140 2459ft 245kts
15-Nov-23 10:57 28.248932 -97.335994 143 2523ft 247kts
15-Nov-23 10:58 28.194909 -97.288705 140 2485ft 245kts
15-Nov-23 10:59 28.141251 -97.240576 142 2408ft 247kts
15-Nov-23 11:00 28.078498 -97.213244 157 1965ft 243kts
15-Nov-23 11:01 28.020121 -97.178594 150 1354ft 240kts
15-Nov-23 11:02 27.961166 -97.172620 187 1097ft 189kts
15-Nov-23 11:03 27.942373 -97.212452 299 971ft 215kts
15-Nov-23 11:04 27.909650 -97.206893 142 1056ft 200kts
15-Nov-23 11:05 27.928308 -97.211232 300 707ft 123kts
15-Nov-23 11:06 27.906885 -97.205784 140 286ft 121kts
15-Nov-23 11:07 27.921143 -97.207560 315 672ft 111kts
15-Nov-23 11:08 27.911170 -97.209686 138 117ft 119kts
15-Nov-23 11:09 27.920573 -97.184288 13 971ft 182kts
15-Nov-23 11:10 27.976962 -97.167564 78 1123ft 235kts
15-Nov-23 11:11 27.931289 -97.117881 154 1040ft 236kts
15-Nov-23 11:12 27.872215 -97.117118 214 1081ft 233kts
15-Nov-23 11:13 27.810541 -97.146969 198 935ft 243kts
15-Nov-23 11:14 27.754830 -97.179675 250 1051ft 208kts
15-Nov-23 11:15 27.738083 -97.239756 252 1004ft 197kts
15-Nov-23 11:16 27.713771 -97.293910 201 944ft 198kts
15-Nov-23 11:17 27.696597 -97.270730 309 828ft 121kts
15-Nov-23 11:18 27.701176 -97.295918 173 280ft 106kts
15-Nov-23 11:19 27.687217 -97.282423 91 22ft 15kts
15-Nov-23 11:33 27.690431 -97.296761 45 23ft 0kts

Navigation Log

Ident Type
Flight plan parsing failed, navigation log unavailable